Time;durP1;ratioP1;P1;durP2;ratioP2;P2;SDS_P1;SDS_P2;PMS_P1;PMS_P2;Temp;Humidity;BMP_temperature;BMP_pressure;BME280_temperature;BME280_humidity;BME280_pressure;Samples;Min_cycle;Max_cycle;Signal;HPM_P1;HPM_P2
2021/09/18 00:01:49;;;;;;;3.60;0.80;;;16.30;92.20;;;;;;4870928;29;20120;-87
2021/09/18 00:04:15;;;;;;;3.75;0.80;;;16.20;92.20;;;;;;4866758;29;20178;-88
2021/09/18 00:06:40;;;;;;;3.10;0.75;;;16.20;92.10;;;;;;4856725;29;20517;-88
2021/09/18 00:09:12;;;;;;;1.58;0.70;;;16.20;92.20;;;;;;4864452;29;20042;-89
2021/09/18 00:11:56;;;;;;;2.95;0.75;;;16.20;92.20;;;;;;4862657;29;20049;-88
2021/09/18 00:14:28;;;;;;;1.83;0.77;;;16.20;91.90;;;;;;4863447;29;20399;-89
2021/09/18 00:17:00;;;;;;;2.30;0.82;;;16.20;92.10;;;;;;4846901;29;20062;-88
2021/09/18 00:19:25;;;;;;;4.28;0.90;;;16.20;92.10;;;;;;4872626;29;20048;-89
2021/09/18 00:21:57;;;;;;;4.28;1.00;;;16.20;92.10;;;;;;4880619;29;20446;-88
2021/09/18 00:24:32;;;;;;;2.25;0.70;;;16.20;92.10;;;;;;4863425;29;20197;-88
2021/09/18 00:26:57;;;;;;;3.42;0.85;;;16.10;92.10;;;;;;4861956;29;20064;-88
2021/09/18 00:29:23;;;;;;;2.53;0.82;;;16.10;92.10;;;;;;4861615;29;20045;-88
2021/09/18 00:31:48;;;;;;;2.97;0.93;;;16.10;92.10;;;;;;4862418;29;20056;-88
2021/09/18 00:34:14;;;;;;;1.75;0.80;;;16.10;92.20;;;;;;4846781;29;20045;-87
2021/09/18 00:36:40;;;;;;;2.65;0.82;;;16.10;92.20;;;;;;4879523;29;20074;-88
2021/09/18 00:39:05;;;;;;;2.55;0.73;;;16.10;92.20;;;;;;4866607;29;20045;-88
2021/09/18 00:41:31;;;;;;;3.05;0.88;;;16.10;92.20;;;;;;4851387;29;20413;-88
2021/09/18 00:43:57;;;;;;;3.28;1.00;;;16.10;92.10;;;;;;4864511;29;20045;-88
2021/09/18 00:46:24;;;;;;;4.50;0.90;;;16.10;92.20;;;;;;4880963;29;20061;-88
2021/09/18 00:48:50;;;;;;;3.15;1.00;;;16.10;92.20;;;;;;4853338;29;20440;-89
2021/09/18 00:51:17;;;;;;;2.45;0.80;;;16.10;92.30;;;;;;4876225;29;20049;-88
2021/09/18 00:53:44;;;;;;;2.25;0.80;;;16.10;92.40;;;;;;4865031;29;20418;-88
2021/09/18 00:56:10;;;;;;;3.08;1.10;;;16.10;92.30;;;;;;4864630;29;20478;-88
2021/09/18 00:58:36;;;;;;;2.80;1.00;;;16.10;92.30;;;;;;4861764;29;20053;-89
2021/09/18 01:01:03;;;;;;;2.42;0.85;;;16.10;92.20;;;;;;4848879;29;20046;-88
2021/09/18 01:03:28;;;;;;;2.25;0.90;;;16.00;92.20;;;;;;4878482;29;20056;-88
2021/09/18 01:05:57;;;;;;;2.17;0.82;;;16.00;92.20;;;;;;4860306;29;20393;-88
2021/09/18 01:08:25;;;;;;;2.30;0.98;;;16.00;92.30;;;;;;4864150;29;20056;-88
2021/09/18 01:10:52;;;;;;;3.47;1.10;;;16.10;92.30;;;;;;4856826;29;20061;-88
2021/09/18 01:13:19;;;;;;;3.38;1.00;;;16.10;92.30;;;;;;4863045;29;20391;-88
2021/09/18 01:43:21;;;;;;;3.35;0.90;;;15.80;91.70;;;;;;4857556;29;20187;-87
2021/09/18 01:54:28;;;;;;;2.58;1.10;;;15.60;91.90;;;;;;4845981;29;20084;-88
2021/09/18 01:57:06;;;;;;;2.47;0.95;;;15.60;92.40;;;;;;4860730;29;20098;-86
2021/09/18 01:59:32;;;;;;;2.70;1.13;;;15.60;92.40;;;;;;4860384;29;20063;-87
2021/09/18 02:02:00;;;;;;;2.38;1.00;;;15.60;92.60;;;;;;4844550;29;20472;-86
2021/09/18 02:04:26;;;;;;;3.13;1.15;;;15.60;92.60;;;;;;4859555;29;20037;-87
2021/09/18 02:07:00;;;;;;;1.77;1.00;;;15.50;92.60;;;;;;4844897;29;20054;-88
2021/09/18 02:09:37;;;;;;;2.30;0.75;;;15.50;92.60;;;;;;4859462;29;20050;-87
2021/09/18 02:12:12;;;;;;;2.78;1.10;;;15.50;92.60;;;;;;4860384;29;20414;-87
2021/09/18 02:18:09;;;;;;;2.03;0.90;;;15.50;92.60;;;;;;4861594;29;20061;-87
2021/09/18 02:27:55;;;;;;;2.92;0.93;;;15.40;92.40;;;;;;4835567;29;20105;-87
2021/09/18 02:30:23;;;;;;;3.65;1.00;;;15.40;92.70;;;;;;4834045;29;20403;-87
2021/09/18 02:32:50;;;;;;;2.97;1.27;;;15.40;92.50;;;;;;4853117;29;21677;-87
2021/09/18 02:35:18;;;;;;;3.08;1.02;;;15.40;92.60;;;;;;4844762;29;20053;-87
2021/09/18 02:37:44;;;;;;;3.17;0.93;;;15.40;92.70;;;;;;4845009;29;20046;-88
2021/09/18 02:40:12;;;;;;;2.70;1.00;;;15.40;92.40;;;;;;4860222;29;20094;-87
2021/09/18 02:42:40;;;;;;;2.65;1.10;;;15.40;92.50;;;;;;4860936;29;20084;-87
2021/09/18 02:45:07;;;;;;;2.30;1.00;;;15.40;92.60;;;;;;4860022;29;20065;-89
2021/09/18 02:47:33;;;;;;;1.83;0.80;;;15.30;92.60;;;;;;4844742;29;20122;-89
2021/09/18 02:49:59;;;;;;;3.58;1.23;;;15.30;92.50;;;;;;4845093;29;20053;-88
2021/09/18 02:52:25;;;;;;;2.75;0.98;;;15.30;92.60;;;;;;4860318;29;20045;-89
2021/09/18 02:54:50;;;;;;;2.63;0.90;;;15.40;92.60;;;;;;4859515;29;20045;-89
2021/09/18 02:57:16;;;;;;;3.17;1.10;;;15.30;92.70;;;;;;4860839;29;20046;-90
2021/09/18 02:59:41;;;;;;;2.30;1.00;;;15.30;92.70;;;;;;4860725;29;20046;-90
2021/09/18 03:02:07;;;;;;;2.67;1.10;;;15.30;92.70;;;;;;4859507;29;20090;-88
2021/09/18 03:04:33;;;;;;;2.75;1.10;;;15.30;92.70;;;;;;4857471;29;20042;-89
2021/09/18 03:06:59;;;;;;;4.18;1.00;;;15.30;92.70;;;;;;4859840;29;20049;-88
2021/09/18 03:09:25;;;;;;;3.33;0.90;;;15.30;92.60;;;;;;4862521;29;20080;-89
2021/09/18 03:11:51;;;;;;;4.15;1.13;;;15.20;92.70;;;;;;4847325;29;20073;-89
2021/09/18 03:14:16;;;;;;;2.08;1.00;;;15.30;92.70;;;;;;4863692;29;20050;-88
2021/09/18 03:16:42;;;;;;;2.88;1.00;;;15.20;92.60;;;;;;4863639;29;20398;-88
2021/09/18 03:19:08;;;;;;;3.65;1.10;;;15.20;92.60;;;;;;4863460;29;20042;-89
2021/09/18 03:21:33;;;;;;;3.30;1.08;;;15.20;92.60;;;;;;4862745;29;20385;-89
2021/09/18 03:23:59;;;;;;;3.65;1.20;;;15.20;92.60;;;;;;4847691;29;20053;-90
2021/09/18 03:26:24;;;;;;;2.40;1.02;;;15.20;92.60;;;;;;4863445;29;20045;-90
2021/09/18 03:28:50;;;;;;;3.47;1.00;;;15.20;92.50;;;;;;4862429;29;20985;-89
2021/09/18 03:33:51;;;;;;;3.63;1.02;;;15.20;92.70;;;;;;4928971;23;20052;-89
2021/09/18 03:36:17;;;;;;;3.28;1.15;;;15.20;92.80;;;;;;4865793;29;20096;-89
2021/09/18 03:38:42;;;;;;;2.72;1.10;;;15.20;92.80;;;;;;4866732;29;20044;-89
2021/09/18 03:41:10;;;;;;;2.78;1.00;;;15.20;92.90;;;;;;4881526;29;20052;-89
2021/09/18 03:43:48;;;;;;;2.17;1.00;;;15.20;92.90;;;;;;4868941;29;20405;-90
2021/09/18 03:46:55;;;;;;;3.67;1.20;;;15.20;92.80;;;;;;4882619;29;20049;-90
2021/09/18 03:49:32;;;;;;;3.72;1.20;;;15.10;92.40;;;;;;4826894;29;20057;-89
2021/09/18 03:52:02;;;;;;;3.38;1.30;;;15.10;92.90;;;;;;4828024;29;20083;-90
2021/09/18 03:54:27;;;;;;;3.08;1.23;;;15.10;92.90;;;;;;4855320;29;20056;-89
2021/09/18 04:22:47;;;;;;;3.67;1.30;;;14.70;92.70;;;;;;4864625;29;20116;-89
2021/09/18 04:25:13;;;;;;;2.47;1.20;;;14.70;93.00;;;;;;4870112;29;20049;-90
2021/09/18 04:27:51;;;;;;;2.30;1.13;;;14.70;93.10;;;;;;4865910;29;20055;-89
2021/09/18 04:30:23;;;;;;;2.80;1.13;;;14.70;93.00;;;;;;4872142;29;20057;-89
2021/09/18 04:32:51;;;;;;;4.07;1.20;;;14.70;93.20;;;;;;4862318;29;20057;-89
2021/09/18 04:35:23;;;;;;;1.55;1.05;;;14.60;93.20;;;;;;4851292;29;20083;-89
2021/09/18 04:38:00;;;;;;;3.25;1.23;;;14.60;93.30;;;;;;4862387;29;20193;-89
2021/09/18 04:40:32;;;;;;;2.85;1.20;;;14.60;93.10;;;;;;4848882;29;20038;-90
2021/09/18 04:43:09;;;;;;;4.00;1.30;;;14.50;93.30;;;;;;4865690;29;20080;-89
2021/09/18 04:45:35;;;;;;;2.63;1.30;;;14.50;93.20;;;;;;4864853;29;20044;-89
2021/09/18 04:54:17;;;;;;;3.50;1.13;;;14.40;93.30;;;;;;5283769;23;20064;-90
2021/09/18 04:56:43;;;;;;;3.05;1.20;;;14.40;93.40;;;;;;4847877;29;20050;-89
2021/09/18 04:59:08;;;;;;;2.35;1.20;;;14.40;93.40;;;;;;4847889;29;20140;-91
2021/09/18 05:01:34;;;;;;;2.08;1.10;;;14.30;93.40;;;;;;4862223;29;20056;-90
2021/09/18 05:03:59;;;;;;;2.42;1.13;;;14.40;93.50;;;;;;4847793;29;20049;-90
2021/09/18 05:10:22;;;;;;;3.67;1.15;;;14.30;93.20;;;;;;4880302;29;20467;-90
2021/09/18 05:13:03;;;;;;;3.45;1.25;;;14.30;93.50;;;;;;4879602;29;20518;-89
2021/09/18 05:15:44;;;;;;;3.05;1.15;;;14.20;93.30;;;;;;4879243;29;20127;-90
2021/09/18 05:18:10;;;;;;;3.30;1.40;;;14.20;93.30;;;;;;4880724;29;20084;-90
2021/09/18 05:20:36;;;;;;;2.63;1.20;;;14.20;93.50;;;;;;4864685;29;20159;-90
2021/09/18 05:23:07;;;;;;;3.08;1.33;;;14.20;93.50;;;;;;4864726;29;20052;-91
2021/09/18 05:25:36;;;;;;;2.85;1.20;;;14.20;93.50;;;;;;4864207;29;20445;-90
2021/09/18 05:28:48;;;;;;;3.72;1.48;;;14.20;93.60;;;;;;4863635;29;20052;-90
2021/09/18 06:32:27;;;;;;;3.38;1.40;;;13.60;93.30;;;;;;4875448;29;20524;-88
2021/09/18 06:35:26;;;;;;;3.38;1.33;;;13.60;93.60;;;;;;4866678;29;20146;-85
2021/09/18 06:38:22;;;;;;;2.67;1.30;;;13.70;93.70;;;;;;4861637;29;20462;-84
2021/09/18 06:40:51;;;;;;;4.75;1.58;;;13.60;93.50;;;;;;4860928;29;20116;-91
2021/09/18 06:43:19;;;;;;;2.88;1.50;;;13.70;93.60;;;;;;4873867;29;20044;-90
2021/09/18 06:49:47;;;;;;;3.13;1.30;;;13.70;93.00;;;;;;4879737;23;20042;-89
2021/09/18 06:59:35;;;;;;;4.97;1.40;;;13.80;93.10;;;;;;4854907;29;20052;-84
2021/09/18 07:02:01;;;;;;;3.22;1.40;;;13.80;93.40;;;;;;4856600;29;20069;-84
2021/09/18 07:04:36;;;;;;;3.72;1.52;;;13.80;93.20;;;;;;4845568;29;20145;-84
2021/09/18 07:07:05;;;;;;;6.43;1.85;;;13.90;93.10;;;;;;4847555;29;20132;-83
2021/09/18 07:09:31;;;;;;;4.28;1.67;;;13.90;93.20;;;;;;4860305;29;20052;-83
2021/09/18 07:11:56;;;;;;;3.38;1.35;;;13.90;93.30;;;;;;4846467;29;20387;-85
2021/09/18 07:14:29;;;;;;;2.60;1.52;;;13.90;93.20;;;;;;4850100;29;20045;-85
2021/09/18 07:16:55;;;;;;;3.63;1.50;;;14.00;93.00;;;;;;4858559;29;20446;-86
2021/09/18 07:37:40;;;;;;;3.00;1.30;;;14.20;92.70;;;;;;4845353;29;20046;-86
2021/09/18 07:40:08;;;;;;;2.47;1.10;;;14.30;92.90;;;;;;4831069;29;20057;-86
2021/09/18 07:49:41;;;;;;;2.13;1.02;;;14.40;92.40;;;;;;4856062;29;20068;-86
2021/09/18 07:52:07;;;;;;;4.03;1.30;;;14.40;92.50;;;;;;4859815;29;20081;-86
2021/09/18 07:54:33;;;;;;;3.72;1.25;;;14.50;92.60;;;;;;4860434;29;20509;-87
2021/09/18 07:57:07;;;;;;;2.03;1.10;;;14.50;92.50;;;;;;4847784;29;20045;-86
2021/09/18 07:59:33;;;;;;;3.97;1.45;;;14.60;92.40;;;;;;4863367;29;20128;-85
2021/09/18 08:02:05;;;;;;;3.08;1.00;;;14.60;92.40;;;;;;4863365;29;20084;-85
2021/09/18 08:04:30;;;;;;;2.13;0.90;;;14.70;92.40;;;;;;4862652;29;20102;-86
2021/09/18 08:06:56;;;;;;;1.88;1.00;;;14.70;92.30;;;;;;4844094;29;20128;-86
2021/09/18 08:09:39;;;;;;;5.30;1.08;;;14.80;92.30;;;;;;4857086;29;20168;-86
2021/09/18 08:12:17;;;;;;;2.53;1.02;;;14.80;92.20;;;;;;4834699;29;20567;-85
2021/09/18 08:14:43;;;;;;;2.38;0.90;;;14.80;92.10;;;;;;4831400;29;20133;-85
2021/09/18 08:28:26;;;;;;;4.60;1.20;;;15.10;92.00;;;;;;4858370;29;20107;-85
2021/09/18 08:30:54;;;;;;;2.33;0.80;;;15.20;92.10;;;;;;4838784;29;20120;-84
2021/09/18 08:33:20;;;;;;;4.25;1.08;;;15.20;92.10;;;;;;4844174;29;20049;-86
2021/09/18 08:35:45;;;;;;;3.70;0.95;;;15.30;92.00;;;;;;4852113;29;20049;-86
2021/09/18 08:38:11;;;;;;;4.68;1.08;;;15.30;91.90;;;;;;4832495;29;20491;-85
2021/09/18 08:40:40;;;;;;;3.10;0.90;;;15.40;91.80;;;;;;4846054;29;20118;-85
2021/09/18 08:43:07;;;;;;;1.42;0.80;;;15.40;91.70;;;;;;4841051;29;20112;-85
2021/09/18 08:45:33;;;;;;;3.30;0.88;;;15.50;91.70;;;;;;4842760;29;20050;-85
2021/09/18 08:48:12;;;;;;;5.03;1.15;;;15.50;91.70;;;;;;4851375;29;20517;-87
2021/09/18 08:50:53;;;;;;;2.28;0.95;;;15.60;91.60;;;;;;4836629;29;20521;-87
2021/09/18 08:53:22;;;;;;;2.47;0.83;;;15.70;91.60;;;;;;4836842;29;20076;-90
2021/09/18 08:56:06;;;;;;;2.78;0.90;;;15.70;91.50;;;;;;4854851;29;20309;-84
2021/09/18 08:58:32;;;;;;;4.10;1.10;;;15.70;91.40;;;;;;4853362;29;20045;-86
2021/09/18 09:00:58;;;;;;;3.15;0.95;;;15.80;91.50;;;;;;4844331;29;20046;-88
2021/09/18 09:03:36;;;;;;;3.78;0.98;;;15.80;91.60;;;;;;4832418;29;20057;-88
2021/09/18 09:06:10;;;;;;;3.75;0.90;;;15.90;91.50;;;;;;4846429;29;20132;-87
2021/09/18 09:08:38;;;;;;;3.92;1.10;;;16.00;91.40;;;;;;4861364;29;20094;-87
2021/09/18 09:11:21;;;;;;;4.07;1.08;;;16.00;91.40;;;;;;4847147;29;20053;-87
2021/09/18 09:14:08;;;;;;;4.78;1.08;;;16.10;91.30;;;;;;4859801;29;20516;-87
2021/09/18 09:16:36;;;;;;;4.47;1.23;;;16.10;91.30;;;;;;4854532;29;20053;-88
2021/09/18 09:19:16;;;;;;;2.67;1.00;;;16.20;91.20;;;;;;4838879;29;20110;-85
2021/09/18 09:21:47;;;;;;;6.45;1.33;;;16.20;91.00;;;;;;4844335;29;20064;-87
2021/09/18 09:24:15;;;;;;;4.40;1.30;;;16.20;91.00;;;;;;4831619;29;20042;-85
2021/09/18 09:31:36;;;;;;;4.45;1.20;;;16.30;90.70;;;;;;4843279;29;20056;-87
2021/09/18 09:34:14;;;;;;;3.08;1.00;;;16.40;90.80;;;;;;4852927;29;20054;-86
2021/09/18 09:36:47;;;;;;;5.35;1.10;;;16.40;90.80;;;;;;4860887;29;20049;-90
2021/09/18 09:39:22;;;;;;;7.10;1.33;;;16.50;90.70;;;;;;4844803;29;20123;-87
2021/09/18 10:12:15;;;;;;;6.10;1.95;;;17.10;90.00;;;;;;5077030;23;20053;-86
2021/09/18 10:14:55;;;;;;;7.03;2.38;;;17.20;90.10;;;;;;4861336;29;20057;-86
2021/09/18 10:17:22;;;;;;;6.82;2.20;;;17.30;89.90;;;;;;4876526;29;20041;-86
2021/09/18 10:25:16;;;;;;;6.65;3.42;;;17.50;89.90;;;;;;4861087;29;20481;-86
2021/09/18 10:28:13;;;;;;;7.53;3.55;;;17.50;89.80;;;;;;4878506;29;20045;-85
2021/09/18 10:30:55;;;;;;;9.43;5.03;;;17.70;89.50;;;;;;4876641;29;20047;-86
2021/09/18 10:33:46;;;;;;;8.13;4.60;;;17.80;88.80;;;;;;4876756;29;20087;-85
2021/09/18 10:36:27;;;;;;;7.22;4.10;;;17.90;88.40;;;;;;4878637;29;20041;-85
2021/09/18 10:39:18;;;;;;;8.32;4.72;;;18.10;88.50;;;;;;4861391;29;20485;-85
2021/09/18 10:42:01;;;;;;;9.50;5.90;;;18.20;87.30;;;;;;4862788;29;20049;-85
2021/09/18 10:44:48;;;;;;;8.18;5.30;;;18.30;87.70;;;;;;4860225;29;20057;-85
2021/09/18 10:47:38;;;;;;;10.90;6.60;;;18.30;86.30;;;;;;4859265;29;20052;-86
2021/09/18 10:50:06;;;;;;;9.43;6.07;;;18.40;86.90;;;;;;4877875;29;20045;-86
2021/09/18 10:52:35;;;;;;;12.60;6.88;;;18.50;86.70;;;;;;4859675;29;20060;-85
2021/09/18 10:55:01;;;;;;;10.18;6.43;;;18.60;87.00;;;;;;4883099;23;20073;-84
2021/09/18 11:19:55;;;;;;;12.32;7.72;;;19.20;83.80;;;;;;4858410;29;20041;-85
2021/09/18 11:22:37;;;;;;;11.88;8.00;;;19.30;85.60;;;;;;4859573;29;20105;-89
2021/09/18 11:25:44;;;;;;;11.43;7.43;;;19.30;85.70;;;;;;4861609;29;20046;-91
2021/09/18 11:28:17;;;;;;;11.32;7.15;;;19.40;85.20;;;;;;4856148;29;20148;-88
2021/09/18 11:30:56;;;;;;;;;;;19.40;84.60;;;;;;4846692;29;20053;-87
2021/09/18 11:33:28;;;;;;;12.13;8.38;;;19.50;86.60;;;;;;4844230;29;19959;-87
2021/09/18 11:36:06;;;;;;;12.98;7.35;;;19.60;85.70;;;;;;4840651;29;20053;-87
2021/09/18 11:38:34;;;;;;;11.73;7.78;;;19.70;83.50;;;;;;4847248;29;20062;-87
2021/09/18 11:41:30;;;;;;;12.95;7.20;;;19.70;84.70;;;;;;4862140;29;20498;-87
2021/09/18 11:44:46;;;;;;;11.63;7.95;;;19.80;83.20;;;;;;4847236;29;20548;-87
2021/09/18 11:47:12;;;;;;;10.88;6.60;;;19.80;84.90;;;;;;4805730;29;20057;-87
2021/09/18 11:49:56;;;;;;;9.98;5.70;;;20.00;84.30;;;;;;4839433;29;20128;-87
2021/09/18 11:52:34;;;;;;;10.75;7.30;;;20.00;82.00;;;;;;4869325;23;20049;-87
2021/09/18 11:55:38;;;;;;;10.25;6.78;;;20.10;83.60;;;;;;4861905;29;20053;-87
2021/09/18 11:58:40;;;;;;;10.77;6.38;;;20.10;83.80;;;;;;4843122;29;20444;-85
2021/09/18 12:01:20;;;;;;;10.32;7.03;;;20.20;82.80;;;;;;4846914;29;20041;-88
2021/09/18 12:03:52;;;;;;;8.60;5.18;;;20.30;84.50;;;;;;4846839;29;20038;-87
2021/09/18 12:06:29;;;;;;;12.02;6.50;;;20.30;81.60;;;;;;4862746;29;20057;-87
2021/09/18 12:09:07;;;;;;;9.30;6.15;;;20.40;83.60;;;;;;4863552;29;20057;-87
2021/09/18 12:11:38;;;;;;;9.52;5.78;;;20.40;84.50;;;;;;4847567;29;20045;-87
2021/09/18 12:14:10;;;;;;;8.20;5.05;;;20.50;83.70;;;;;;4847808;29;20046;-87
2021/09/18 12:16:41;;;;;;;9.57;6.50;;;20.60;83.80;;;;;;4846755;29;20108;-86
2021/09/18 12:19:07;;;;;;;8.80;4.82;;;20.70;84.80;;;;;;4863129;29;20045;-87
2021/09/18 12:21:46;;;;;;;9.02;5.93;;;20.80;83.20;;;;;;4862860;29;20053;-87
2021/09/18 12:24:12;;;;;;;9.77;5.25;;;20.90;84.60;;;;;;4862215;29;20050;-87
2021/09/18 12:26:40;;;;;;;8.98;5.70;;;20.90;84.80;;;;;;4847668;29;20056;-87
2021/09/18 12:29:11;;;;;;;7.45;4.50;;;21.00;85.60;;;;;;4863818;29;20059;-87
2021/09/18 12:31:37;;;;;;;8.65;4.60;;;21.10;85.30;;;;;;4846273;29;20057;-87
2021/09/18 12:34:12;;;;;;;8.40;4.93;;;21.10;84.90;;;;;;4862760;29;20524;-87
2021/09/18 12:36:38;;;;;;;7.88;5.35;;;21.20;85.90;;;;;;4862472;29;20057;-88
2021/09/18 12:39:06;;;;;;;7.90;4.80;;;21.30;86.40;;;;;;4860429;29;20054;-87
2021/09/18 12:41:33;;;;;;;7.75;4.72;;;21.40;86.90;;;;;;4845958;29;20049;-87
2021/09/18 12:44:04;;;;;;;6.55;4.07;;;21.40;86.90;;;;;;4847221;29;20137;-87
2021/09/18 12:46:44;;;;;;;6.32;3.50;;;21.50;86.80;;;;;;4846441;29;20061;-88
2021/09/18 12:49:10;;;;;;;7.50;3.90;;;21.50;83.10;;;;;;4847125;29;20090;-88
2021/09/18 12:51:38;;;;;;;6.75;4.30;;;21.50;85.60;;;;;;4861151;29;20075;-88
2021/09/18 12:54:05;;;;;;;6.38;4.00;;;21.50;86.00;;;;;;4862683;29;20130;-88
2021/09/18 12:56:32;;;;;;;6.35;2.65;;;21.60;86.20;;;;;;4863371;29;20101;-88
2021/09/18 12:59:04;;;;;;;5.82;3.75;;;21.60;82.10;;;;;;4861810;29;20134;-87
2021/09/18 13:01:43;;;;;;;6.25;3.50;;;21.60;84.40;;;;;;4862013;29;20556;-88
2021/09/18 13:04:12;;;;;;;7.65;4.13;;;21.70;84.90;;;;;;4846674;29;20491;-88
2021/09/18 13:06:40;;;;;;;7.00;3.67;;;21.70;86.80;;;;;;4846379;29;20557;-87
2021/09/18 13:09:10;;;;;;;5.53;2.90;;;21.80;86.40;;;;;;4862065;29;20053;-88
2021/09/18 13:11:49;;;;;;;4.50;2.70;;;21.80;85.10;;;;;;4846501;29;20107;-88
2021/09/18 13:14:32;;;;;;;5.65;3.10;;;21.80;84.80;;;;;;4846258;29;20050;-88
2021/09/18 13:17:07;;;;;;;4.95;2.90;;;21.90;84.40;;;;;;4861826;29;20478;-88
2021/09/18 13:19:55;;;;;;;7.78;3.25;;;21.90;85.10;;;;;;4860711;29;20401;-88
2021/09/18 13:22:29;;;;;;;5.28;2.67;;;22.00;85.20;;;;;;4862105;29;20508;-88
2021/09/18 13:24:57;;;;;;;5.57;3.25;;;22.10;84.60;;;;;;4846458;29;20053;-87
2021/09/18 13:27:24;;;;;;;5.53;2.60;;;22.10;85.60;;;;;;4845152;29;20125;-84
2021/09/18 13:29:52;;;;;;;4.45;2.00;;;22.20;85.60;;;;;;4847791;29;20057;-85
2021/09/18 13:32:19;;;;;;;6.43;2.60;;;22.20;84.30;;;;;;4846571;29;20132;-92
2021/09/18 13:34:44;;;;;;;5.10;2.58;;;22.30;85.20;;;;;;4845575;29;20432;-91
2021/09/18 13:37:10;;;;;;;4.63;2.63;;;22.30;85.60;;;;;;4862207;29;20053;-93
2021/09/18 13:39:36;;;;;;;4.53;2.50;;;22.30;84.00;;;;;;4861880;29;20045;-92
2021/09/18 13:42:02;;;;;;;6.32;2.20;;;22.40;84.70;;;;;;4860513;29;20061;-92
2021/09/18 13:44:28;;;;;;;4.47;1.98;;;22.40;84.40;;;;;;5012506;24;21807;-92
2021/09/18 13:46:54;;;;;;;5.15;2.22;;;22.50;84.00;;;;;;4851301;29;20549;-93
2021/09/18 13:49:42;;;;;;;;;;;;;;;;;;;;;
2021/09/18 13:52:39;;;;;;;3.63;1.90;;;22.60;84.80;;;;;;4872482;29;20060;-93
2021/09/18 13:55:25;;;;;;;5.32;1.88;;;22.50;85.00;;;;;;4850552;29;20056;-92
2021/09/18 13:57:52;;;;;;;3.15;1.85;;;22.60;83.20;;;;;;4855771;29;20085;-94
2021/09/18 14:00:27;;;;;;;3.65;1.65;;;22.70;83.90;;;;;;4862654;29;20431;-93
2021/09/18 14:02:52;;;;;;;5.68;1.90;;;22.70;84.50;;;;;;4864198;29;20057;-93
2021/09/18 14:05:18;;;;;;;3.13;1.52;;;22.80;84.90;;;;;;4880050;29;20048;-93
2021/09/18 14:07:46;;;;;;;4.07;1.67;;;22.80;84.40;;;;;;4878178;29;20113;-93
2021/09/18 14:10:12;;;;;;;4.55;1.70;;;22.80;84.50;;;;;;4868998;29;20046;-94
2021/09/18 14:12:38;;;;;;;2.65;1.30;;;22.90;84.70;;;;;;4857509;29;20060;-93
2021/09/18 14:15:04;;;;;;;3.58;1.50;;;22.90;84.00;;;;;;4886801;29;20044;-92
2021/09/18 14:17:33;;;;;;;2.85;1.27;;;23.00;84.20;;;;;;4872141;29;20048;-94
2021/09/18 14:20:41;;;;;;;;;;;;;;;;;;;;;
2021/09/18 14:23:32;;;;;;;2.85;1.30;;;23.00;84.60;;;;;;4866677;29;20059;-93
2021/09/18 14:26:30;;;;;;;2.40;1.27;;;23.00;84.80;;;;;;4865102;29;20048;-93
2021/09/18 14:29:36;;;;;;;4.85;1.08;;;23.10;84.90;;;;;;4809155;29;20065;-94
2021/09/18 14:32:35;;;;;;;2.58;1.20;;;23.10;78.70;;;;;;4771249;30;20142;-94
2021/09/18 14:35:09;;;;;;;3.50;1.20;;;23.10;82.20;;;;;;4769449;30;20051;-94
2021/09/18 14:37:35;;;;;;;3.63;1.30;;;23.20;81.60;;;;;;4819776;29;20046;-92
2021/09/18 14:40:04;;;;;;;2.50;1.20;;;23.20;82.10;;;;;;4806618;29;20122;-92
2021/09/18 14:42:30;;;;;;;2.38;1.20;;;23.20;82.60;;;;;;4803080;29;20121;-92
2021/09/18 14:44:56;;;;;;;2.83;1.00;;;23.30;82.60;;;;;;4804363;29;20149;-92
2021/09/18 14:47:27;;;;;;;2.97;1.30;;;23.30;81.80;;;;;;4863332;29;20056;-91
2021/09/18 14:49:59;;;;;;;2.70;1.10;;;23.40;82.50;;;;;;4861821;29;20083;-92
2021/09/18 14:52:25;;;;;;;3.78;1.13;;;23.40;83.00;;;;;;4862377;29;20041;-93
2021/09/18 14:54:51;;;;;;;2.38;1.05;;;23.40;83.20;;;;;;4857236;29;20080;-93
2021/09/18 14:57:16;;;;;;;2.90;1.10;;;23.40;83.20;;;;;;4863947;29;20055;-92
2021/09/18 14:59:42;;;;;;;2.88;1.13;;;23.40;83.40;;;;;;4875715;29;20045;-92
2021/09/18 15:02:10;;;;;;;2.03;1.10;;;23.40;83.60;;;;;;4860253;29;20140;-93
2021/09/18 15:04:42;;;;;;;1.90;0.90;;;23.40;83.90;;;;;;4857681;29;20053;-91
2021/09/18 15:07:09;;;;;;;2.47;1.13;;;23.40;84.00;;;;;;4878087;29;20045;-90
2021/09/18 15:09:34;;;;;;;1.60;0.88;;;23.40;84.30;;;;;;4864364;29;20045;-92
2021/09/18 15:12:10;;;;;;;2.90;0.80;;;23.40;84.70;;;;;;4858244;29;20101;-92
2021/09/18 15:14:44;;;;;;;2.13;0.90;;;23.40;84.60;;;;;;4865100;29;20045;-90
2021/09/18 15:17:10;;;;;;;1.73;0.90;;;23.50;85.10;;;;;;4863551;29;20478;-85
2021/09/18 15:24:35;;;;;;;2.08;0.95;;;23.40;84.60;;;;;;4831671;29;20054;-93
2021/09/18 15:31:35;;;;;;;0.97;0.50;;;23.40;85.10;;;;;;4770966;29;20063;-90
2021/09/18 15:34:13;;;;;;;1.42;0.85;;;23.40;80.60;;;;;;4779582;29;20463;-84
2021/09/18 15:36:39;;;;;;;1.70;0.77;;;23.40;83.60;;;;;;4804738;29;20412;-85
2021/09/18 15:39:10;;;;;;;2.50;0.70;;;23.40;84.30;;;;;;4818022;29;20128;-84
2021/09/18 15:41:47;;;;;;;1.42;0.70;;;23.40;81.30;;;;;;4818352;29;20054;-84
2021/09/18 15:44:13;;;;;;;1.88;0.80;;;23.40;81.70;;;;;;4836492;29;20103;-84
2021/09/18 15:46:42;;;;;;;2.67;0.93;;;23.30;76.40;;;;;;4894196;29;20493;-84
2021/09/18 15:49:11;;;;;;;3.15;0.77;;;23.30;79.10;;;;;;4887232;29;20052;-85
2021/09/18 15:51:39;;;;;;;1.67;0.88;;;23.20;80.40;;;;;;4856150;29;20106;-83
2021/09/18 15:54:05;;;;;;;2.15;0.80;;;23.20;81.20;;;;;;4856950;29;20052;-83
2021/09/18 15:56:31;;;;;;;1.70;0.75;;;23.20;81.50;;;;;;4877842;29;20053;-91
2021/09/18 15:58:56;;;;;;;1.63;0.70;;;23.20;80.70;;;;;;4874632;29;20405;-89
2021/09/18 16:01:23;;;;;;;1.10;0.70;;;23.20;80.30;;;;;;4876093;29;20051;-89
2021/09/18 16:11:32;;;;;;;1.48;0.80;;;23.30;81.50;;;;;;4773323;29;20121;-91
2021/09/18 16:14:16;;;;;;;1.70;0.80;;;23.30;81.50;;;;;;4859896;29;20053;-94
2021/09/18 16:17:01;;;;;;;1.77;0.82;;;23.20;83.30;;;;;;5078148;23;20038;-93
2021/09/18 16:22:21;;;;;;;1.45;0.70;;;23.30;83.40;;;;;;4888058;23;20117;-93
2021/09/18 16:24:50;;;;;;;1.45;0.70;;;23.30;83.80;;;;;;4876826;29;20049;-92
2021/09/18 16:27:17;;;;;;;2.25;0.93;;;23.20;85.10;;;;;;4871352;29;20040;-92
2021/09/18 16:46:34;;;;;;;1.70;0.77;;;23.10;87.60;;;;;;5562949;23;20131;-87
2021/09/18 16:49:00;;;;;;;1.60;0.80;;;23.10;88.00;;;;;;4882178;29;20106;-85
2021/09/18 16:54:06;;;;;;;1.17;0.60;;;23.10;88.00;;;;;;4843323;29;20053;-86
2021/09/18 16:57:02;;;;;;;2.50;0.85;;;23.10;86.90;;;;;;4827194;29;20102;-86
2021/09/18 17:04:03;;;;;;;1.88;0.80;;;23.00;87.00;;;;;;4863224;29;20093;-87
2021/09/18 17:07:29;;;;;;;;;;;;;;;;;;;;;
2021/09/18 17:10:26;;;;;;;2.38;0.90;;;23.00;87.20;;;;;;4835981;29;20132;-86
2021/09/18 17:12:51;;;;;;;1.45;0.70;;;22.90;87.40;;;;;;4857120;29;20048;-87
2021/09/18 17:16:03;;;;;;;;;;;;;;;;;;;;;
2021/09/18 17:18:58;;;;;;;1.48;0.80;;;22.80;87.00;;;;;;4796545;29;20138;-86
2021/09/18 17:22:23;;;;;;;2.15;0.90;;;22.80;87.30;;;;;;4794259;29;20054;-87
2021/09/18 17:25:18;;;;;;;2.05;0.90;;;22.70;87.00;;;;;;4796660;29;20510;-86
2021/09/18 17:27:52;;;;;;;1.80;0.80;;;22.70;86.90;;;;;;4869233;29;20204;-89
2021/09/18 17:30:18;;;;;;;3.35;1.00;;;22.70;86.90;;;;;;4872352;29;20140;-86
2021/09/18 17:32:50;;;;;;;2.80;0.73;;;22.70;87.10;;;;;;4870695;29;20061;-86
2021/09/18 17:35:15;;;;;;;1.77;0.93;;;22.60;86.90;;;;;;4876325;29;20049;-86
2021/09/18 17:37:41;;;;;;;1.30;0.75;;;22.60;86.80;;;;;;4873645;29;20050;-86
2021/09/18 17:40:08;;;;;;;1.15;0.70;;;22.50;87.00;;;;;;4865538;29;20054;-84
2021/09/18 17:42:33;;;;;;;1.42;1.00;;;22.50;87.10;;;;;;4848304;29;20109;-85
2021/09/18 17:44:59;;;;;;;1.65;0.80;;;22.40;87.30;;;;;;4871312;29;20049;-85
2021/09/18 17:47:26;;;;;;;3.72;0.80;;;22.40;87.40;;;;;;4868187;29;20057;-84
2021/09/18 17:49:52;;;;;;;2.30;0.90;;;22.40;87.40;;;;;;4858818;29;20112;-85
2021/09/18 17:52:19;;;;;;;1.85;0.70;;;22.30;87.40;;;;;;4873530;29;20116;-86
2021/09/18 17:54:46;;;;;;;1.90;1.00;;;22.30;87.50;;;;;;4872763;29;20137;-86
2021/09/18 17:57:13;;;;;;;1.83;1.00;;;22.20;87.40;;;;;;4868033;29;20676;-88
2021/09/18 17:59:42;;;;;;;2.78;0.77;;;22.20;87.40;;;;;;4856001;29;20058;-86
2021/09/18 18:02:09;;;;;;;1.77;0.90;;;22.10;87.30;;;;;;4863881;29;20490;-86
2021/09/18 18:04:38;;;;;;;2.13;0.90;;;22.10;87.40;;;;;;4868534;29;20493;-85
2021/09/18 18:07:06;;;;;;;1.75;1.00;;;22.00;87.10;;;;;;4853096;29;20100;-86
2021/09/18 18:09:32;;;;;;;2.00;0.90;;;22.00;87.20;;;;;;4860399;29;20073;-85
2021/09/18 18:12:00;;;;;;;1.73;0.82;;;21.90;87.20;;;;;;4851852;29;20052;-86
2021/09/18 18:14:26;;;;;;;2.85;0.90;;;21.80;87.20;;;;;;4851486;29;20052;-86
2021/09/18 18:16:52;;;;;;;1.15;0.80;;;21.80;87.30;;;;;;4865868;29;20049;-86
2021/09/18 18:26:42;;;;;;;1.83;0.82;;;21.60;86.80;;;;;;4858322;29;20067;-88